createdAt,value
2023-03-17T00:00:31.228Z,60.0
2023-03-17T00:03:02.016Z,60.0
2023-03-17T00:08:02.631Z,60.0
2023-03-17T00:10:33.266Z,60.0
2023-03-17T00:13:03.871Z,60.0
2023-03-17T00:15:44.522Z,60.0
2023-03-17T00:18:15.241Z,60.0
2023-03-17T00:20:45.853Z,60.0
2023-03-17T00:23:16.483Z,60.0
2023-03-17T00:25:47.144Z,60.0
2023-03-17T00:28:17.859Z,60.0
2023-03-17T00:30:58.518Z,60.0
2023-03-17T00:33:29.214Z,60.0
2023-03-17T00:35:59.933Z,60.0
2023-03-17T00:38:30.557Z,60.0
2023-03-17T00:41:01.220Z,60.0
2023-03-17T00:43:41.829Z,60.0
2023-03-17T00:48:52.442Z,60.0
2023-03-17T00:51:23.100Z,60.0
2023-03-17T00:53:53.704Z,60.0
2023-03-17T00:56:24.348Z,60.0
2023-03-17T00:59:05.036Z,60.0
2023-03-17T01:01:36.455Z,60.0
2023-03-17T01:04:07.164Z,60.0
2023-03-17T01:06:37.868Z,60.0
2023-03-17T01:09:08.767Z,60.0
2023-03-17T01:11:39.363Z,60.0
2023-03-17T01:14:20.012Z,60.0
2023-03-17T01:16:50.704Z,60.0
2023-03-17T01:19:21.337Z,60.0
2023-03-17T01:21:51.961Z,60.0
2023-03-17T01:29:32.629Z,60.0
2023-03-17T01:32:03.388Z,60.0
2023-03-17T01:34:33.982Z,60.0
2023-03-17T01:37:04.597Z,60.0
2023-03-17T01:39:35.182Z,60.0
2023-03-17T01:42:05.827Z,60.0
2023-03-17T01:44:46.451Z,60.0
2023-03-17T01:47:17.072Z,60.0
2023-03-17T01:49:47.713Z,60.0
2023-03-17T01:52:18.316Z,60.0
2023-03-17T01:54:48.937Z,60.0
2023-03-17T01:57:29.573Z,60.0
2023-03-17T02:00:00.237Z,60.0
2023-03-17T02:02:30.886Z,60.0
2023-03-17T02:05:01.536Z,60.0
2023-03-17T02:12:42.177Z,60.0
2023-03-17T02:15:12.814Z,60.0
2023-03-17T02:17:43.448Z,60.0
2023-03-17T02:20:14.058Z,60.0
2023-03-17T02:22:44.664Z,60.0
2023-03-17T02:25:15.343Z,60.0
2023-03-17T02:27:55.950Z,60.0
2023-03-17T02:30:26.597Z,60.0
2023-03-17T02:32:57.364Z,60.0
2023-03-17T02:35:28.135Z,60.0
2023-03-17T02:37:58.750Z,60.0
2023-03-17T02:40:29.600Z,61.0
2023-03-17T02:43:10.332Z,60.0
2023-03-17T02:45:41.052Z,61.0
2023-03-17T02:50:42.276Z,60.0
2023-03-17T02:53:12.893Z,61.0
2023-03-17T02:55:53.522Z,61.0
2023-03-17T02:58:24.110Z,61.0
2023-03-17T03:00:54.744Z,61.0
2023-03-17T03:03:25.395Z,61.0
2023-03-17T03:05:56.014Z,61.0
2023-03-17T03:08:26.685Z,61.0
2023-03-17T03:11:07.316Z,61.0
2023-03-17T03:13:37.942Z,61.0
2023-03-17T03:16:08.638Z,60.0
2023-03-17T03:18:39.364Z,60.0
2023-03-17T03:21:10.041Z,61.0
2023-03-17T03:23:40.646Z,61.0
2023-03-17T03:26:21.291Z,61.0
2023-03-17T03:31:32.068Z,60.0
2023-03-17T03:34:02.792Z,60.0
2023-03-17T03:36:33.476Z,60.0
2023-03-17T03:39:04.088Z,60.0
2023-03-17T03:41:45.095Z,60.0
2023-03-17T03:44:15.734Z,60.0
2023-03-17T03:46:46.517Z,60.0
2023-03-17T03:51:47.186Z,60.0
2023-03-17T03:54:28.037Z,60.0
2023-03-17T03:56:58.698Z,60.0
2023-03-17T03:59:29.291Z,60.0
2023-03-17T04:01:59.916Z,60.0
2023-03-17T04:04:30.611Z,60.0
2023-03-17T04:07:01.244Z,61.0
2023-03-17T04:12:11.882Z,61.0
2023-03-17T04:14:42.492Z,61.0
2023-03-17T04:17:13.128Z,61.0
2023-03-17T04:19:43.736Z,61.0
2023-03-17T04:22:14.367Z,61.0
2023-03-17T04:24:54.992Z,61.0
2023-03-17T04:27:25.668Z,61.0
2023-03-17T04:29:56.279Z,61.0
2023-03-17T04:32:27.220Z,61.0
2023-03-17T04:34:57.952Z,61.0
2023-03-17T04:37:28.575Z,61.0
2023-03-17T04:40:09.234Z,61.0
2023-03-17T04:42:39.903Z,61.0
2023-03-17T04:45:10.540Z,61.0
2023-03-17T04:47:41.179Z,61.0
2023-03-17T04:52:41.822Z,60.0
2023-03-17T04:55:22.505Z,60.0
2023-03-17T04:57:53.433Z,60.0
2023-03-17T05:00:24.042Z,60.0
2023-03-17T05:02:54.663Z,60.0
2023-03-17T05:05:21.668Z,60.0
2023-03-17T05:10:42.656Z,60.0
2023-03-17T05:13:13.302Z,60.0
2023-03-17T05:15:43.921Z,60.0
2023-03-17T05:18:15.327Z,60.0
2023-03-17T05:20:35.975Z,60.0
2023-03-17T05:23:26.598Z,60.0
2023-03-17T05:25:57.251Z,60.0
2023-03-17T05:28:27.871Z,60.0
2023-03-17T05:33:28.502Z,60.0
2023-03-17T05:35:59.268Z,60.0
2023-03-17T05:38:40.076Z,60.0
2023-03-17T05:41:10.714Z,60.0
2023-03-17T05:43:41.379Z,60.0
2023-03-17T05:46:12.097Z,60.0
2023-03-17T05:48:42.824Z,61.0
2023-03-17T05:51:13.445Z,61.0
2023-03-17T05:53:54.099Z,61.0
2023-03-17T05:56:24.745Z,60.0
2023-03-17T05:58:55.359Z,60.0
2023-03-17T06:01:26.020Z,60.0
2023-03-17T06:03:56.806Z,60.0
2023-03-17T06:06:37.478Z,60.0
2023-03-17T06:09:08.104Z,60.0
2023-03-17T06:14:08.733Z,60.0
2023-03-17T06:16:39.365Z,61.0
2023-03-17T06:19:09.987Z,61.0
2023-03-17T06:21:50.608Z,61.0
2023-03-17T06:24:21.207Z,61.0
2023-03-17T06:26:51.814Z,61.0
2023-03-17T06:29:22.413Z,61.0
2023-03-17T06:31:53.093Z,61.0
2023-03-17T06:34:19.891Z,61.0
2023-03-17T06:37:00.535Z,61.0
2023-03-17T06:39:31.163Z,61.0
2023-03-17T06:42:01.791Z,61.0
2023-03-17T06:44:32.405Z,61.0
2023-03-17T06:47:03.142Z,61.0
2023-03-17T06:49:33.778Z,61.0
2023-03-17T06:54:44.416Z,61.0
2023-03-17T06:57:15.052Z,61.0
2023-03-17T06:59:55.684Z,61.0
2023-03-17T07:02:26.304Z,61.0
2023-03-17T07:05:06.993Z,61.0
2023-03-17T07:07:37.625Z,61.0
2023-03-17T07:10:08.275Z,61.0
2023-03-17T07:12:38.938Z,61.0
2023-03-17T07:15:09.582Z,60.0
2023-03-17T07:17:40.299Z,61.0
2023-03-17T07:20:20.995Z,61.0
2023-03-17T07:22:51.656Z,60.0
2023-03-17T07:25:22.282Z,60.0
2023-03-17T07:27:53.350Z,60.0
2023-03-17T07:30:23.995Z,60.0
2023-03-17T07:35:35.040Z,60.0
2023-03-17T07:38:05.755Z,60.0
2023-03-17T07:40:36.431Z,60.0
2023-03-17T07:43:07.050Z,60.0
2023-03-17T07:45:37.845Z,60.0
2023-03-17T07:48:08.638Z,60.0
2023-03-17T07:50:49.306Z,60.0
2023-03-17T07:53:19.929Z,59.0
2023-03-17T07:55:50.557Z,59.0
2023-03-17T07:58:22.755Z,59.0
2023-03-17T08:00:53.398Z,59.0
2023-03-17T08:03:34.221Z,59.0
2023-03-17T08:08:35.015Z,59.0
2023-03-17T08:11:05.610Z,59.0
2023-03-17T08:16:06.331Z,58.0
2023-03-17T08:18:47.106Z,58.0
2023-03-17T08:21:17.842Z,58.0
2023-03-17T08:23:48.487Z,58.0
2023-03-17T08:26:19.156Z,58.0
2023-03-17T08:28:49.855Z,58.0
2023-03-17T08:31:22.656Z,57.0
2023-03-17T08:34:03.421Z,57.0
2023-03-17T08:36:34.028Z,58.0
2023-03-17T08:39:04.626Z,57.0
2023-03-17T08:41:35.261Z,57.0
2023-03-17T08:44:05.877Z,57.0
2023-03-17T08:46:36.610Z,57.0
2023-03-17T08:49:17.240Z,57.0
2023-03-17T08:51:47.963Z,57.0
2023-03-17T08:56:48.610Z,56.0
2023-03-17T08:59:19.224Z,56.0
2023-03-17T09:02:00.014Z,55.0
2023-03-17T09:04:30.733Z,55.0
2023-03-17T09:07:13.538Z,56.0
2023-03-17T09:09:34.153Z,56.0
2023-03-17T09:12:04.786Z,56.0
2023-03-17T09:14:43.284Z,55.0
2023-03-17T09:17:16.314Z,56.0
2023-03-17T09:19:46.933Z,56.0
2023-03-17T09:22:17.589Z,56.0
2023-03-17T09:24:48.221Z,55.0
2023-03-17T09:27:18.824Z,55.0
2023-03-17T09:29:49.487Z,55.0
2023-03-17T09:32:30.209Z,56.0
2023-03-17T09:37:30.923Z,56.0
2023-03-17T09:40:01.555Z,56.0
2023-03-17T09:42:32.186Z,55.0
2023-03-17T09:45:02.838Z,55.0
2023-03-17T09:47:43.527Z,55.0
2023-03-17T09:50:14.176Z,56.0
2023-03-17T09:52:44.958Z,56.0
2023-03-17T09:55:15.619Z,56.0
2023-03-17T09:57:46.239Z,56.0
2023-03-17T10:00:16.904Z,56.0
2023-03-17T10:02:57.533Z,55.0
2023-03-17T10:05:28.532Z,56.0
2023-03-17T10:07:59.320Z,56.0
2023-03-17T10:10:29.656Z,56.0
2023-03-17T10:13:00.428Z,56.0
2023-03-17T10:18:11.051Z,55.0
2023-03-17T10:20:41.661Z,55.0
2023-03-17T10:23:12.263Z,55.0
2023-03-17T10:25:43.505Z,56.0
2023-03-17T10:28:14.119Z,56.0
2023-03-17T10:30:54.766Z,55.0
2023-03-17T10:33:25.508Z,55.0
2023-03-17T10:35:56.268Z,55.0
2023-03-17T10:38:26.990Z,55.0
2023-03-17T10:40:57.664Z,55.0
2023-03-17T10:43:28.297Z,55.0
2023-03-17T10:46:09.018Z,54.0
2023-03-17T10:48:39.777Z,55.0
2023-03-17T10:51:10.396Z,55.0
2023-03-17T10:53:41.026Z,55.0
2023-03-17T10:58:41.708Z,55.0
2023-03-17T11:01:22.566Z,55.0
2023-03-17T11:06:23.185Z,54.0
2023-03-17T11:08:53.922Z,55.0
2023-03-17T11:11:24.583Z,53.0
2023-03-17T11:14:05.311Z,52.0
2023-03-17T11:16:36.007Z,52.0
2023-03-17T11:19:06.721Z,53.0
2023-03-17T11:21:37.354Z,52.0
2023-03-17T11:24:07.962Z,52.0
2023-03-17T11:26:38.599Z,51.0
2023-03-17T11:29:19.288Z,51.0
2023-03-17T11:31:50.007Z,51.0
2023-03-17T11:34:20.876Z,51.0
2023-03-17T11:39:21.501Z,50.0
2023-03-17T11:41:52.334Z,51.0
2023-03-17T11:44:32.938Z,50.0
2023-03-17T11:47:03.545Z,50.0
2023-03-17T11:49:34.207Z,50.0
2023-03-17T11:52:04.987Z,50.0
2023-03-17T11:54:35.585Z,50.0
2023-03-17T11:57:06.234Z,49.0
2023-03-17T11:59:46.841Z,49.0
2023-03-17T12:02:17.485Z,50.0
2023-03-17T12:04:48.322Z,49.0
2023-03-17T12:07:18.966Z,49.0
2023-03-17T12:09:49.636Z,49.0
2023-03-17T12:12:40.273Z,49.0
2023-03-17T12:15:10.897Z,49.0
2023-03-17T12:20:11.522Z,49.0
2023-03-17T12:22:42.120Z,49.0
2023-03-17T12:25:12.753Z,48.0
2023-03-17T12:27:53.388Z,48.0
2023-03-17T12:30:24.023Z,48.0
2023-03-17T12:32:54.815Z,48.0
2023-03-17T12:35:25.596Z,48.0
2023-03-17T12:37:56.284Z,48.0
2023-03-17T12:40:26.943Z,49.0
2023-03-17T12:43:07.815Z,50.0
2023-03-17T12:45:38.459Z,50.0
2023-03-17T12:48:09.091Z,50.0
2023-03-17T12:50:39.760Z,49.0
2023-03-17T12:53:10.375Z,49.0
2023-03-17T12:55:41.239Z,47.0
2023-03-17T13:00:51.858Z,46.0
2023-03-17T13:03:22.571Z,46.0
2023-03-17T13:05:53.264Z,47.0
2023-03-17T13:08:23.936Z,48.0
2023-03-17T13:10:54.558Z,47.0
2023-03-17T13:13:35.161Z,47.0
2023-03-17T13:16:05.920Z,47.0
2023-03-17T13:18:36.699Z,47.0
2023-03-17T13:21:07.318Z,47.0
2023-03-17T13:23:37.950Z,47.0
2023-03-17T13:26:18.579Z,46.0
2023-03-17T13:28:49.201Z,47.0
2023-03-17T13:31:19.865Z,46.0
2023-03-17T13:33:50.559Z,47.0
2023-03-17T13:36:21.289Z,47.0
2023-03-17T13:41:31.927Z,48.0
2023-03-17T13:44:02.543Z,47.0
2023-03-17T13:46:33.267Z,48.0
2023-03-17T13:49:04.107Z,49.0
2023-03-17T13:51:34.736Z,48.0
2023-03-17T13:54:09.211Z,48.0
2023-03-17T13:56:49.872Z,48.0
2023-03-17T13:59:20.568Z,48.0
2023-03-17T14:01:51.184Z,48.0
2023-03-17T14:04:21.970Z,48.0
2023-03-17T14:06:52.655Z,47.0
2023-03-17T14:09:23.279Z,48.0
2023-03-17T14:12:03.899Z,47.0
2023-03-17T14:14:43.209Z,46.0
2023-03-17T14:17:03.832Z,46.0
2023-03-17T14:22:04.682Z,47.0
2023-03-17T14:24:35.314Z,46.0
2023-03-17T14:27:15.923Z,46.0
2023-03-17T14:29:46.545Z,46.0
2023-03-17T14:32:17.368Z,47.0
2023-03-17T14:34:48.041Z,48.0
2023-03-17T14:37:18.693Z,46.0
2023-03-17T14:39:59.316Z,47.0
2023-03-17T14:42:29.953Z,47.0
2023-03-17T14:45:00.605Z,47.0
2023-03-17T14:47:31.276Z,47.0
2023-03-17T14:50:01.895Z,47.0
2023-03-17T14:52:32.524Z,48.0
2023-03-17T14:55:13.129Z,47.0
2023-03-17T14:57:43.756Z,48.0
2023-03-17T15:02:44.579Z,48.0
2023-03-17T15:05:15.191Z,48.0
2023-03-17T15:07:45.815Z,48.0
2023-03-17T15:10:26.437Z,48.0
2023-03-17T15:12:57.043Z,49.0
2023-03-17T15:15:27.655Z,49.0
2023-03-17T15:17:58.284Z,49.0
2023-03-17T15:20:29.433Z,49.0
2023-03-17T15:23:00.192Z,49.0
2023-03-17T15:25:40.868Z,49.0
2023-03-17T15:28:11.504Z,49.0
2023-03-17T15:30:56.550Z,49.0
2023-03-17T15:33:17.238Z,49.0
2023-03-17T15:35:48.098Z,49.0
2023-03-17T15:38:18.739Z,50.0
2023-03-17T15:43:29.367Z,49.0
2023-03-17T15:46:00.110Z,49.0
2023-03-17T15:48:30.777Z,49.0
2023-03-17T15:51:01.451Z,49.0
2023-03-17T15:53:42.074Z,49.0
2023-03-17T15:56:12.708Z,49.0
2023-03-17T15:58:43.346Z,49.0
2023-03-17T16:01:14.115Z,50.0
2023-03-17T16:03:48.190Z,50.0
2023-03-17T16:06:18.859Z,50.0
2023-03-17T16:08:59.541Z,50.0
2023-03-17T16:11:30.480Z,50.0
2023-03-17T16:14:01.173Z,50.0
2023-03-17T16:16:31.979Z,51.0
2023-03-17T16:19:02.654Z,51.0
2023-03-17T16:24:13.280Z,51.0
2023-03-17T16:26:43.905Z,52.0
2023-03-17T16:29:16.409Z,52.0
2023-03-17T16:31:47.115Z,52.0
2023-03-17T16:34:17.726Z,52.0
2023-03-17T16:36:48.370Z,52.0
2023-03-17T16:39:29.021Z,53.0
2023-03-17T16:41:59.656Z,53.0
2023-03-17T16:44:30.297Z,53.0
2023-03-17T16:47:01.122Z,52.0
2023-03-17T16:49:31.812Z,53.0
2023-03-17T16:52:12.475Z,53.0
2023-03-17T16:54:43.080Z,53.0
2023-03-17T16:57:15.203Z,54.0
2023-03-17T16:59:45.803Z,54.0
2023-03-17T17:04:46.457Z,56.0
2023-03-17T17:07:27.119Z,56.0
2023-03-17T17:09:57.753Z,56.0
2023-03-17T17:12:28.370Z,56.0
2023-03-17T17:14:59.038Z,57.0
2023-03-17T17:17:29.657Z,57.0
2023-03-17T17:20:00.270Z,58.0
2023-03-17T17:22:40.901Z,58.0
2023-03-17T17:25:11.584Z,58.0
2023-03-17T17:27:42.198Z,58.0
2023-03-17T17:30:12.812Z,58.0
2023-03-17T17:32:43.489Z,58.0
2023-03-17T17:35:14.189Z,58.0
2023-03-17T17:37:55.030Z,58.0
2023-03-17T17:40:25.669Z,58.0
2023-03-17T17:45:26.317Z,58.0
2023-03-17T17:47:56.927Z,58.0
2023-03-17T17:50:37.583Z,58.0
2023-03-17T17:53:08.214Z,58.0
2023-03-17T17:55:38.837Z,58.0
2023-03-17T17:58:09.440Z,58.0
2023-03-17T18:00:40.494Z,58.0
2023-03-17T18:03:11.264Z,58.0
2023-03-17T18:05:51.880Z,58.0
2023-03-17T18:08:22.571Z,58.0
2023-03-17T18:10:53.197Z,58.0
2023-03-17T18:13:23.820Z,58.0
2023-03-17T18:15:54.468Z,58.0
2023-03-17T18:18:25.172Z,58.0
2023-03-17T18:21:05.781Z,58.0
2023-03-17T18:26:06.423Z,58.0
2023-03-17T18:28:37.084Z,58.0
2023-03-17T18:31:07.688Z,57.0
2023-03-17T18:33:38.293Z,58.0
2023-03-17T18:36:18.955Z,58.0
2023-03-17T18:38:49.585Z,58.0
2023-03-17T18:41:20.228Z,58.0
2023-03-17T18:43:50.832Z,58.0
2023-03-17T18:46:21.548Z,58.0
2023-03-17T18:49:02.233Z,58.0
2023-03-17T18:51:32.861Z,58.0
2023-03-17T18:54:03.487Z,58.0
2023-03-17T18:56:34.163Z,58.0
2023-03-17T18:59:04.803Z,58.0
2023-03-17T19:01:35.463Z,58.0
2023-03-17T19:06:56.105Z,58.0
2023-03-17T19:09:26.747Z,58.0
2023-03-17T19:11:57.388Z,58.0
2023-03-17T19:14:27.989Z,58.0
2023-03-17T19:16:58.683Z,58.0
2023-03-17T19:19:39.351Z,58.0
2023-03-17T19:22:09.971Z,58.0
2023-03-17T19:24:40.825Z,58.0
2023-03-17T19:27:11.432Z,58.0
2023-03-17T19:29:42.063Z,58.0
2023-03-17T19:32:12.743Z,58.0
2023-03-17T19:34:53.357Z,58.0
2023-03-17T19:37:23.995Z,58.0
2023-03-17T19:39:54.613Z,57.0
2023-03-17T19:42:25.242Z,57.0
2023-03-17T19:47:35.854Z,56.0
2023-03-17T19:50:06.492Z,56.0
2023-03-17T19:52:37.126Z,56.0
2023-03-17T19:55:08.285Z,55.0
2023-03-17T19:57:39.111Z,55.0
2023-03-17T20:00:09.730Z,54.0
2023-03-17T20:02:50.337Z,54.0
2023-03-17T20:05:20.963Z,54.0
2023-03-17T20:07:51.623Z,53.0
2023-03-17T20:10:22.245Z,53.0
2023-03-17T20:12:53.158Z,52.0
2023-03-17T20:15:23.814Z,52.0
2023-03-17T20:18:04.601Z,51.0
2023-03-17T20:20:35.215Z,51.0
2023-03-17T20:23:05.848Z,49.0
2023-03-17T20:28:06.481Z,48.0
2023-03-17T20:30:37.073Z,48.0
2023-03-17T20:33:17.897Z,48.0
2023-03-17T20:35:48.687Z,48.0
2023-03-17T20:38:19.380Z,48.0
2023-03-17T20:40:50.004Z,47.0
2023-03-17T20:43:20.624Z,46.0
2023-03-17T20:46:01.241Z,46.0
2023-03-17T20:48:31.870Z,45.0
2023-03-17T20:51:02.489Z,45.0
2023-03-17T20:53:33.130Z,44.0
2023-03-17T20:56:03.757Z,44.0
2023-03-17T20:58:34.400Z,44.0
2023-03-17T21:01:15.008Z,44.0
2023-03-17T21:03:45.694Z,45.0
2023-03-17T21:08:46.385Z,47.0
2023-03-17T21:11:17.011Z,47.0
2023-03-17T21:13:47.665Z,48.0
2023-03-17T21:16:28.465Z,49.0
2023-03-17T21:18:59.303Z,50.0
2023-03-17T21:21:30.200Z,51.0
2023-03-17T21:24:00.806Z,50.0
2023-03-17T21:26:31.440Z,47.0
2023-03-17T21:29:02.045Z,45.0
2023-03-17T21:31:42.807Z,44.0
2023-03-17T21:34:13.627Z,43.0
2023-03-17T21:36:44.339Z,42.0
2023-03-17T21:39:14.990Z,42.0
2023-03-17T21:41:47.026Z,42.0
2023-03-17T21:44:17.642Z,41.0
2023-03-17T21:49:28.256Z,41.0
2023-03-17T21:51:58.896Z,40.0
2023-03-17T21:54:29.551Z,41.0
2023-03-17T21:57:00.209Z,41.0
2023-03-17T21:59:40.850Z,42.0
2023-03-17T22:02:11.527Z,43.0
2023-03-17T22:04:42.145Z,42.0
2023-03-17T22:07:12.783Z,42.0
2023-03-17T22:09:43.404Z,42.0
2023-03-17T22:12:14.087Z,42.0
2023-03-17T22:14:54.730Z,42.0
2023-03-17T22:17:25.370Z,42.0
2023-03-17T22:19:56.043Z,43.0
2023-03-17T22:22:27.173Z,43.0
2023-03-17T22:24:57.859Z,43.0
2023-03-17T22:30:08.483Z,42.0
2023-03-17T22:32:39.319Z,42.0
2023-03-17T22:35:10.058Z,42.0
2023-03-17T22:37:40.746Z,42.0
2023-03-17T22:40:11.363Z,43.0
2023-03-17T22:42:41.995Z,43.0
2023-03-17T22:45:32.605Z,44.0
2023-03-17T22:48:03.253Z,45.0
2023-03-17T22:50:34.274Z,46.0
2023-03-17T22:53:05.121Z,47.0
2023-03-17T22:55:35.748Z,48.0
2023-03-17T22:58:06.347Z,47.0
2023-03-17T23:00:47.027Z,48.0
2023-03-17T23:03:17.690Z,48.0
2023-03-17T23:05:48.397Z,48.0
2023-03-17T23:10:49.058Z,47.0
2023-03-17T23:13:29.678Z,47.0
2023-03-17T23:16:00.289Z,47.0
2023-03-17T23:18:30.949Z,46.0
2023-03-17T23:21:01.576Z,46.0
2023-03-17T23:23:32.231Z,45.0
2023-03-17T23:26:02.885Z,45.0
2023-03-17T23:28:43.490Z,44.0
2023-03-17T23:31:14.215Z,44.0
2023-03-17T23:33:44.941Z,43.0
2023-03-17T23:36:15.597Z,43.0
2023-03-17T23:38:46.278Z,42.0
2023-03-17T23:41:16.979Z,42.0
2023-03-17T23:43:57.625Z,41.0
2023-03-17T23:46:28.461Z,41.0
2023-03-17T23:51:29.164Z,40.0
2023-03-17T23:53:59.799Z,38.0
2023-03-17T23:56:30.427Z,37.0
2023-03-17T23:59:11.017Z,36.0
